sensor_id;sensor_type;location;lat;lon;timestamp;pressure;altitude;pressure_sealevel;temperature;humidity
82262;BME280;71861;52.364;6.580;2023-08-12T03:02:50;101695.97;;;19.44;84.95
82262;BME280;71861;52.364;6.580;2023-08-12T03:05:16;101696.34;;;19.41;85.18
82262;BME280;71861;52.364;6.580;2023-08-12T03:07:41;101691.47;;;19.38;85.15
82262;BME280;71861;52.364;6.580;2023-08-12T03:10:07;101688.84;;;19.38;85.52
82262;BME280;71861;52.364;6.580;2023-08-12T03:12:32;101685.56;;;19.36;85.85
82262;BME280;71861;52.364;6.580;2023-08-12T03:14:58;101684.78;;;19.35;85.51
82262;BME280;71861;52.364;6.580;2023-08-12T03:17:23;101681.31;;;19.35;85.64
82262;BME280;71861;52.364;6.580;2023-08-12T03:19:48;101690.25;;;19.34;86.33
82262;BME280;71861;52.364;6.580;2023-08-12T03:22:14;101683.31;;;19.33;86.17
82262;BME280;71861;52.364;6.580;2023-08-12T03:24:39;101680.50;;;19.34;86.40
82262;BME280;71861;52.364;6.580;2023-08-12T03:27:05;101682.94;;;19.36;85.88
82262;BME280;71861;52.364;6.580;2023-08-12T03:29:30;101681.75;;;19.38;86.31
82262;BME280;71861;52.364;6.580;2023-08-12T03:31:55;101672.81;;;19.39;85.93
82262;BME280;71861;52.364;6.580;2023-08-12T03:34:21;101673.66;;;19.40;86.95
82262;BME280;71861;52.364;6.580;2023-08-12T03:36:46;101666.53;;;19.40;86.31
82262;BME280;71861;52.364;6.580;2023-08-12T03:39:14;101673.66;;;19.40;86.74
82262;BME280;71861;52.364;6.580;2023-08-12T03:41:39;101664.72;;;19.41;86.65
82262;BME280;71861;52.364;6.580;2023-08-12T03:44:05;101661.06;;;19.42;86.61
82262;BME280;71861;52.364;6.580;2023-08-12T03:46:30;101659.06;;;19.44;86.46
82262;BME280;71861;52.364;6.580;2023-08-12T03:48:56;101668.59;;;19.45;86.49
82262;BME280;71861;52.364;6.580;2023-08-12T03:51:21;101670.03;;;19.47;86.32
82262;BME280;71861;52.364;6.580;2023-08-12T03:53:47;101665.56;;;19.48;86.33
82262;BME280;71861;52.364;6.580;2023-08-12T03:56:12;101664.38;;;19.50;85.94
82262;BME280;71861;52.364;6.580;2023-08-12T03:58:40;101663.16;;;19.53;86.09
82262;BME280;71861;52.364;6.580;2023-08-12T04:01:06;101666.41;;;19.55;85.98
82262;BME280;71861;52.364;6.580;2023-08-12T04:03:31;101655.88;;;19.55;86.28
82262;BME280;71861;52.364;6.580;2023-08-12T04:05:57;101661.78;;;19.57;86.31
82262;BME280;71861;52.364;6.580;2023-08-12T04:08:23;101653.03;;;19.56;86.36
82262;BME280;71861;52.364;6.580;2023-08-12T04:10:50;101653.88;;;19.57;86.94
82262;BME280;71861;52.364;6.580;2023-08-12T04:13:15;101650.41;;;19.56;86.35
82262;BME280;71861;52.364;6.580;2023-08-12T04:15:41;101648.59;;;19.57;86.94
82262;BME280;71861;52.364;6.580;2023-08-12T04:18:07;101645.13;;;19.56;86.64
82262;BME280;71861;52.364;6.580;2023-08-12T04:20:32;101644.09;;;19.57;86.80
82262;BME280;71861;52.364;6.580;2023-08-12T04:22:57;101643.13;;;19.58;86.95
82262;BME280;71861;52.364;6.580;2023-08-12T04:25:23;101641.47;;;19.57;86.77
82262;BME280;71861;52.364;6.580;2023-08-12T04:27:48;101645.56;;;19.60;86.57
82262;BME280;71861;52.364;6.580;2023-08-12T04:30:15;101637.66;;;19.60;86.50
82262;BME280;71861;52.364;6.580;2023-08-12T04:32:41;101635.59;;;19.62;86.88
82262;BME280;71861;52.364;6.580;2023-08-12T04:35:06;101627.50;;;19.63;86.83
82262;BME280;71861;52.364;6.580;2023-08-12T04:37:32;101627.50;;;19.63;86.84
82262;BME280;71861;52.364;6.580;2023-08-12T04:39:58;101624.66;;;19.65;86.61
82262;BME280;71861;52.364;6.580;2023-08-12T04:42:23;101623.03;;;19.64;86.92
82262;BME280;71861;52.364;6.580;2023-08-12T04:44:48;101620.41;;;19.64;87.05
82262;BME280;71861;52.364;6.580;2023-08-12T04:47:14;101616.16;;;19.63;86.95
82262;BME280;71861;52.364;6.580;2023-08-12T04:49:39;101620.63;;;19.62;86.96
82262;BME280;71861;52.364;6.580;2023-08-12T04:52:05;101610.06;;;19.62;86.69
82262;BME280;71861;52.364;6.580;2023-08-12T04:54:32;101606.22;;;19.65;87.42
82262;BME280;71861;52.364;6.580;2023-08-12T04:56:57;101601.75;;;19.65;87.08
82262;BME280;71861;52.364;6.580;2023-08-12T04:59:22;101601.56;;;19.67;86.96
82262;BME280;71861;52.364;6.580;2023-08-12T05:01:48;101599.53;;;19.69;87.06
82262;BME280;71861;52.364;6.580;2023-08-12T05:04:13;101601.16;;;19.70;87.23
82262;BME280;71861;52.364;6.580;2023-08-12T05:06:38;101600.34;;;19.69;86.54
82262;BME280;71861;52.364;6.580;2023-08-12T05:09:04;101589.78;;;19.69;86.49
82262;BME280;71861;52.364;6.580;2023-08-12T05:11:30;101588.19;;;19.68;86.76
82262;BME280;71861;52.364;6.580;2023-08-12T05:13:56;101582.28;;;19.66;86.91
82262;BME280;71861;52.364;6.580;2023-08-12T05:16:21;101581.69;;;19.64;87.10
82262;BME280;71861;52.364;6.580;2023-08-12T05:18:47;101586.13;;;19.64;86.83
82262;BME280;71861;52.364;6.580;2023-08-12T05:21:12;101593.03;;;19.65;86.54
82262;BME280;71861;52.364;6.580;2023-08-12T05:23:37;101577.81;;;19.67;87.64
82262;BME280;71861;52.364;6.580;2023-08-12T05:26:03;101579.03;;;19.71;87.44
82262;BME280;71861;52.364;6.580;2023-08-12T05:28:28;101574.63;;;19.78;86.52
82262;BME280;71861;52.364;6.580;2023-08-12T05:30:53;101558.41;;;19.88;86.67
82262;BME280;71861;52.364;6.580;2023-08-12T05:33:20;101570.19;;;19.98;86.57
82262;BME280;71861;52.364;6.580;2023-08-12T05:35:49;101562.25;;;20.11;86.34
82262;BME280;71861;52.364;6.580;2023-08-12T05:38:15;101565.34;;;20.28;86.16
82262;BME280;71861;52.364;6.580;2023-08-12T05:40:41;101557.41;;;20.47;85.57
82262;BME280;71861;52.364;6.580;2023-08-12T05:43:06;101556.38;;;20.61;84.67
82262;BME280;71861;52.364;6.580;2023-08-12T05:45:31;101570.16;;;20.76;84.36
82262;BME280;71861;52.364;6.580;2023-08-12T05:47:57;101585.81;;;20.97;84.39
82262;BME280;71861;52.364;6.580;2023-08-12T05:50:22;101579.81;;;21.21;83.21
82262;BME280;71861;52.364;6.580;2023-08-12T05:52:48;101572.84;;;21.33;82.51
82262;BME280;71861;52.364;6.580;2023-08-12T05:55:13;101572.00;;;21.46;81.72
82262;BME280;71861;52.364;6.580;2023-08-12T05:57:38;101574.59;;;21.53;81.10
82262;BME280;71861;52.364;6.580;2023-08-12T06:00:04;101574.16;;;21.62;81.24
82262;BME280;71861;52.364;6.580;2023-08-12T06:02:31;101558.50;;;21.61;80.74
82262;BME280;71861;52.364;6.580;2023-08-12T06:04:56;101550.81;;;21.53;80.48
82262;BME280;71861;52.364;6.580;2023-08-12T06:07:21;101558.97;;;21.44;80.71
82262;BME280;71861;52.364;6.580;2023-08-12T06:09:48;101553.50;;;21.39;80.88
82262;BME280;71861;52.364;6.580;2023-08-12T06:12:14;101549.47;;;21.37;80.91
82262;BME280;71861;52.364;6.580;2023-08-12T06:14:39;101547.88;;;21.29;81.02
82262;BME280;71861;52.364;6.580;2023-08-12T06:17:05;101549.72;;;21.22;80.91
82262;BME280;71861;52.364;6.580;2023-08-12T06:19:30;101538.38;;;21.15;81.02
82262;BME280;71861;52.364;6.580;2023-08-12T06:21:56;101530.06;;;21.05;81.41
82262;BME280;71861;52.364;6.580;2023-08-12T06:24:21;101530.69;;;20.94;81.67
82262;BME280;71861;52.364;6.580;2023-08-12T06:26:46;101540.47;;;20.87;81.99
82262;BME280;71861;52.364;6.580;2023-08-12T06:29:12;101552.09;;;20.80;82.07
82262;BME280;71861;52.364;6.580;2023-08-12T06:31:37;101552.50;;;20.70;83.63
82262;BME280;71861;52.364;6.580;2023-08-12T06:34:02;101558.63;;;20.64;82.79
82262;BME280;71861;52.364;6.580;2023-08-12T06:36:28;101554.16;;;20.58;83.66
82262;BME280;71861;52.364;6.580;2023-08-12T06:38:53;101551.31;;;20.53;83.18
82262;BME280;71861;52.364;6.580;2023-08-12T06:41:19;101542.19;;;20.49;83.73
82262;BME280;71861;52.364;6.580;2023-08-12T06:43:44;101547.28;;;20.44;84.40
82262;BME280;71861;52.364;6.580;2023-08-12T06:46:09;101539.34;;;20.38;84.33
82262;BME280;71861;52.364;6.580;2023-08-12T06:48:35;101527.19;;;20.30;85.17
82262;BME280;71861;52.364;6.580;2023-08-12T06:51:00;101526.78;;;20.27;85.01
82262;BME280;71861;52.364;6.580;2023-08-12T06:53:29;101540.56;;;20.22;85.19
82262;BME280;71861;52.364;6.580;2023-08-12T06:55:54;101556.22;;;20.17;86.16
82262;BME280;71861;52.364;6.580;2023-08-12T06:58:20;101546.09;;;20.14;84.99
82262;BME280;71861;52.364;6.580;2023-08-12T07:00:46;101546.09;;;20.14;85.51
82262;BME280;71861;52.364;6.580;2023-08-12T07:03:11;101541.16;;;20.11;85.84
82262;BME280;71861;52.364;6.580;2023-08-12T07:05:37;101537.94;;;20.09;85.80
82262;BME280;71861;52.364;6.580;2023-08-12T07:08:02;101530.22;;;20.08;86.01
82262;BME280;71861;52.364;6.580;2023-08-12T07:10:27;101522.72;;;20.05;85.73
82262;BME280;71861;52.364;6.580;2023-08-12T07:12:53;101527.16;;;20.04;86.54
82262;BME280;71861;52.364;6.580;2023-08-12T07:15:19;101534.66;;;20.01;86.87
82262;BME280;71861;52.364;6.580;2023-08-12T07:17:44;101533.03;;;20.00;86.73
82262;BME280;71861;52.364;6.580;2023-08-12T07:20:10;101532.22;;;19.99;86.96
82262;BME280;71861;52.364;6.580;2023-08-12T07:22:35;101526.94;;;19.99;86.89
82262;BME280;71861;52.364;6.580;2023-08-12T07:25:00;101517.22;;;20.00;87.13
82262;BME280;71861;52.364;6.580;2023-08-12T07:27:27;101511.94;;;20.00;86.42
82262;BME280;71861;52.364;6.580;2023-08-12T07:29:52;101522.28;;;20.01;86.93
82262;BME280;71861;52.364;6.580;2023-08-12T07:32:18;101513.34;;;20.02;86.73
82262;BME280;71861;52.364;6.580;2023-08-12T07:34:44;101521.28;;;20.02;86.90
82262;BME280;71861;52.364;6.580;2023-08-12T07:37:09;101511.75;;;20.01;86.69
82262;BME280;71861;52.364;6.580;2023-08-12T07:39:35;101516.00;;;20.02;87.01
82262;BME280;71861;52.364;6.580;2023-08-12T07:42:00;101520.88;;;20.05;87.58
82262;BME280;71861;52.364;6.580;2023-08-12T07:44:26;101510.31;;;20.05;87.09
82262;BME280;71861;52.364;6.580;2023-08-12T07:46:51;101511.13;;;20.06;87.41
82262;BME280;71861;52.364;6.580;2023-08-12T07:49:16;101516.59;;;20.04;87.24
82262;BME280;71861;52.364;6.580;2023-08-12T07:51:41;101501.81;;;20.03;87.72
82262;BME280;71861;52.364;6.580;2023-08-12T07:54:07;101497.53;;;20.02;87.38
82262;BME280;71861;52.364;6.580;2023-08-12T07:56:32;101497.53;;;20.02;87.46
82262;BME280;71861;52.364;6.580;2023-08-12T07:58:58;101491.84;;;20.05;86.94
82262;BME280;71861;52.364;6.580;2023-08-12T08:01:23;101490.03;;;20.06;87.60
82262;BME280;71861;52.364;6.580;2023-08-12T08:03:49;101487.59;;;20.04;87.54
82262;BME280;71861;52.364;6.580;2023-08-12T08:06:14;101489.59;;;20.02;87.12
82262;BME280;71861;52.364;6.580;2023-08-12T08:08:39;101483.34;;;20.03;87.28
82262;BME280;71861;52.364;6.580;2023-08-12T08:11:05;101475.44;;;20.03;87.62
82262;BME280;71861;52.364;6.580;2023-08-12T08:13:30;101477.03;;;20.04;87.85
82262;BME280;71861;52.364;6.580;2023-08-12T08:15:55;101475.00;;;20.06;87.65
82262;BME280;71861;52.364;6.580;2023-08-12T08:18:21;101481.91;;;20.07;87.21
82262;BME280;71861;52.364;6.580;2023-08-12T08:20:46;101481.91;;;20.07;87.18
82262;BME280;71861;52.364;6.580;2023-08-12T08:23:11;101485.56;;;20.06;86.81
82262;BME280;71861;52.364;6.580;2023-08-12T08:25:37;101480.69;;;20.03;86.76
82262;BME280;71861;52.364;6.580;2023-08-12T08:28:02;101484.94;;;20.04;86.76
82262;BME280;71861;52.364;6.580;2023-08-12T08:30:28;101479.06;;;20.02;86.45
82262;BME280;71861;52.364;6.580;2023-08-12T08:32:54;101479.88;;;20.03;86.50
82262;BME280;71861;52.364;6.580;2023-08-12T08:35:19;101477.03;;;20.04;86.38
82262;BME280;71861;52.364;6.580;2023-08-12T08:37:45;101478.66;;;20.05;86.60
82262;BME280;71861;52.364;6.580;2023-08-12T08:40:10;101477.03;;;20.04;86.65
82262;BME280;71861;52.364;6.580;2023-08-12T08:42:37;101476.22;;;20.04;86.68
82262;BME280;71861;52.364;6.580;2023-08-12T08:45:05;101474.41;;;20.04;86.98
82262;BME280;71861;52.364;6.580;2023-08-12T08:47:32;101471.56;;;19.99;86.60
82262;BME280;71861;52.364;6.580;2023-08-12T08:49:58;101457.16;;;19.95;86.47
82262;BME280;71861;52.364;6.580;2023-08-12T08:52:24;101454.31;;;19.97;86.33
82262;BME280;71861;52.364;6.580;2023-08-12T08:54:50;101461.63;;;20.01;86.73
82262;BME280;71861;52.364;6.580;2023-08-12T08:57:16;101452.69;;;20.02;86.43
82262;BME280;71861;52.364;6.580;2023-08-12T08:59:42;101457.94;;;20.02;86.33
82262;BME280;71861;52.364;6.580;2023-08-12T09:02:15;101453.28;;;20.04;86.00
82262;BME280;71861;52.364;6.580;2023-08-12T09:04:42;101451.28;;;20.00;86.27
82262;BME280;71861;52.364;6.580;2023-08-12T09:07:07;101446.41;;;20.03;86.22
82262;BME280;71861;52.364;6.580;2023-08-12T09:09:34;101447.00;;;20.05;86.05
82262;BME280;71861;52.364;6.580;2023-08-12T09:12:01;101446.00;;;20.06;86.70
82262;BME280;71861;52.364;6.580;2023-08-12T09:14:27;101436.44;;;20.05;87.11
82262;BME280;71861;52.364;6.580;2023-08-12T09:16:54;101440.31;;;20.09;86.40
82262;BME280;71861;52.364;6.580;2023-08-12T09:19:20;101438.47;;;20.16;86.39
82262;BME280;71861;52.364;6.580;2023-08-12T09:21:51;101435.84;;;20.16;87.07
82262;BME280;71861;52.364;6.580;2023-08-12T09:24:23;101431.59;;;20.15;86.75
82262;BME280;71861;52.364;6.580;2023-08-12T09:26:52;101439.50;;;20.15;86.41
82262;BME280;71861;52.364;6.580;2023-08-12T09:29:17;101442.16;;;20.15;86.34
82262;BME280;71861;52.364;6.580;2023-08-12T09:31:42;101436.66;;;20.17;86.70
82262;BME280;71861;52.364;6.580;2023-08-12T09:34:08;101443.75;;;20.23;86.47
82262;BME280;71861;52.364;6.580;2023-08-12T09:36:34;101433.63;;;20.26;86.90
82262;BME280;71861;52.364;6.580;2023-08-12T09:38:59;101439.06;;;20.31;86.51
82262;BME280;71861;52.364;6.580;2023-08-12T09:41:26;101434.41;;;20.33;86.46
82262;BME280;71861;52.364;6.580;2023-08-12T09:43:52;101447.59;;;20.40;86.40
82262;BME280;71861;52.364;6.580;2023-08-12T09:46:21;101435.78;;;20.42;86.67
82262;BME280;71861;52.364;6.580;2023-08-12T09:48:46;101437.59;;;20.48;86.73
82262;BME280;71861;52.364;6.580;2023-08-12T09:51:13;101428.44;;;20.57;86.74
82262;BME280;71861;52.364;6.580;2023-08-12T09:53:40;101429.22;;;20.71;87.47
82262;BME280;71861;52.364;6.580;2023-08-12T09:56:07;101424.25;;;20.87;87.06
82262;BME280;71861;52.364;6.580;2023-08-12T09:58:35;101421.25;;;21.21;87.33
82262;BME280;71861;52.364;6.580;2023-08-12T10:01:03;101420.63;;;21.51;86.04
82262;BME280;71861;52.364;6.580;2023-08-12T10:03:29;101424.84;;;21.58;85.19
82262;BME280;71861;52.364;6.580;2023-08-12T10:05:55;101420.69;;;21.69;85.03
82262;BME280;71861;52.364;6.580;2023-08-12T10:08:21;101420.22;;;21.78;84.38
82262;BME280;71861;52.364;6.580;2023-08-12T10:10:48;101420.19;;;21.85;83.61
82262;BME280;71861;52.364;6.580;2023-08-12T10:13:14;101413.31;;;21.77;83.39
82262;BME280;71861;52.364;6.580;2023-08-12T10:15:40;101418.03;;;21.69;83.26
82262;BME280;71861;52.364;6.580;2023-08-12T10:18:06;101416.91;;;21.58;83.37
82262;BME280;71861;52.364;6.580;2023-08-12T10:20:32;101430.59;;;21.48;83.57
82262;BME280;71861;52.364;6.580;2023-08-12T10:22:59;101413.56;;;21.44;83.58
82262;BME280;71861;52.364;6.580;2023-08-12T10:25:31;101422.13;;;21.40;83.99
82262;BME280;71861;52.364;6.580;2023-08-12T10:27:57;101437.59;;;21.36;84.19
82262;BME280;71861;52.364;6.580;2023-08-12T10:30:22;101439.94;;;21.26;83.96
82262;BME280;71861;52.364;6.580;2023-08-12T10:32:47;101434.91;;;21.12;83.58
82262;BME280;71861;52.364;6.580;2023-08-12T10:35:13;101431.84;;;21.15;84.02
82262;BME280;71861;52.364;6.580;2023-08-12T10:37:39;101428.50;;;21.32;84.49
82262;BME280;71861;52.364;6.580;2023-08-12T10:40:05;101435.81;;;21.62;84.34
82262;BME280;71861;52.364;6.580;2023-08-12T10:42:43;101442.25;;;21.97;84.37
82262;BME280;71861;52.364;6.580;2023-08-12T10:45:10;101450.75;;;22.23;82.84
82262;BME280;71861;52.364;6.580;2023-08-12T10:47:51;101450.97;;;22.40;82.23
82262;BME280;71861;52.364;6.580;2023-08-12T10:50:20;101447.94;;;22.61;82.62
82262;BME280;71861;52.364;6.580;2023-08-12T10:52:46;101448.13;;;22.77;81.16
82262;BME280;71861;52.364;6.580;2023-08-12T10:55:25;101440.34;;;22.82;79.48
82262;BME280;71861;52.364;6.580;2023-08-12T10:57:53;101440.41;;;22.76;79.98
82262;BME280;71861;52.364;6.580;2023-08-12T11:00:26;101429.06;;;22.69;80.03
82262;BME280;71861;52.364;6.580;2023-08-12T11:02:56;101440.56;;;22.63;79.80
82262;BME280;71861;52.364;6.580;2023-08-12T11:05:23;101438.63;;;22.52;79.89
82262;BME280;71861;52.364;6.580;2023-08-12T11:07:57;101451.78;;;22.40;80.04
82262;BME280;71861;52.364;6.580;2023-08-12T11:10:24;101453.13;;;22.31;80.13
82262;BME280;71861;52.364;6.580;2023-08-12T11:15:38;101454.22;;;22.24;80.43
82262;BME280;71861;52.364;6.580;2023-08-12T11:18:12;101463.03;;;22.36;80.95
82262;BME280;71861;52.364;6.580;2023-08-12T11:20:38;101467.31;;;22.37;80.54
82262;BME280;71861;52.364;6.580;2023-08-12T11:23:04;101453.41;;;22.41;80.32
82262;BME280;71861;52.364;6.580;2023-08-12T11:25:31;101461.50;;;22.46;80.30
82262;BME280;71861;52.364;6.580;2023-08-12T11:27:57;101464.69;;;22.55;79.65
82262;BME280;71861;52.364;6.580;2023-08-12T11:30:23;101462.47;;;22.52;78.99
82262;BME280;71861;52.364;6.580;2023-08-12T11:32:50;101452.69;;;22.52;79.51
82262;BME280;71861;52.364;6.580;2023-08-12T11:35:17;101462.56;;;22.63;79.73
82262;BME280;71861;52.364;6.580;2023-08-12T11:37:44;101465.84;;;22.77;80.29
82262;BME280;71861;52.364;6.580;2023-08-12T11:40:10;101470.88;;;22.85;79.09
82262;BME280;71861;52.364;6.580;2023-08-12T11:42:39;101466.28;;;22.92;78.05
82262;BME280;71861;52.364;6.580;2023-08-12T11:45:05;101470.63;;;22.86;78.05
82262;BME280;71861;52.364;6.580;2023-08-12T11:47:32;101470.72;;;22.80;77.53
82262;BME280;71861;52.364;6.580;2023-08-12T11:49:57;101468.81;;;22.69;76.96
82262;BME280;71861;52.364;6.580;2023-08-12T11:52:23;101484.56;;;22.64;76.74
82262;BME280;71861;52.364;6.580;2023-08-12T11:54:51;101481.75;;;22.77;76.64
82262;BME280;71861;52.364;6.580;2023-08-12T11:57:17;101486.59;;;22.98;76.08
82262;BME280;71861;52.364;6.580;2023-08-12T11:59:42;101479.06;;;23.13;74.30
82262;BME280;71861;52.364;6.580;2023-08-12T12:02:08;101484.66;;;23.05;74.79
82262;BME280;71861;52.364;6.580;2023-08-12T12:04:34;101497.47;;;23.08;74.52
82262;BME280;71861;52.364;6.580;2023-08-12T12:06:59;101493.34;;;23.30;74.27
82262;BME280;71861;52.364;6.580;2023-08-12T12:09:25;101489.88;;;23.71;74.77
82262;BME280;71861;52.364;6.580;2023-08-12T12:11:55;101482.09;;;24.10;72.10
82262;BME280;71861;52.364;6.580;2023-08-12T12:14:21;101491.63;;;24.57;71.48
82262;BME280;71861;52.364;6.580;2023-08-12T12:16:47;101485.09;;;25.00;68.60
82262;BME280;71861;52.364;6.580;2023-08-12T12:19:21;101489.75;;;25.21;67.56
82262;BME280;71861;52.364;6.580;2023-08-12T12:21:48;101491.94;;;25.24;66.03
82262;BME280;71861;52.364;6.580;2023-08-12T12:24:14;101492.44;;;25.65;65.50
82262;BME280;71861;52.364;6.580;2023-08-12T12:26:40;101487.94;;;25.99;65.26
82262;BME280;71861;52.364;6.580;2023-08-12T12:29:06;101490.19;;;26.07;60.00
82262;BME280;71861;52.364;6.580;2023-08-12T12:31:33;101497.19;;;25.96;61.47
82262;BME280;71861;52.364;6.580;2023-08-12T12:33:59;101493.72;;;25.79;59.12
82262;BME280;71861;52.364;6.580;2023-08-12T12:36:24;101498.31;;;25.84;60.49
82262;BME280;71861;52.364;6.580;2023-08-12T12:38:51;101500.69;;;25.97;59.30
82262;BME280;71861;52.364;6.580;2023-08-12T12:41:16;101506.00;;;25.97;60.50
82262;BME280;71861;52.364;6.580;2023-08-12T12:43:42;101497.94;;;25.92;57.98
82262;BME280;71861;52.364;6.580;2023-08-12T12:46:07;101505.59;;;26.05;60.12
82262;BME280;71861;52.364;6.580;2023-08-12T12:48:33;101512.28;;;26.24;58.84
82262;BME280;71861;52.364;6.580;2023-08-12T12:50:58;101513.25;;;26.35;58.55
82262;BME280;71861;52.364;6.580;2023-08-12T12:53:23;101507.91;;;26.35;57.13
82262;BME280;71861;52.364;6.580;2023-08-12T12:55:49;101507.25;;;26.44;56.38
82262;BME280;71861;52.364;6.580;2023-08-12T12:58:14;101505.75;;;26.53;55.50
82262;BME280;71861;52.364;6.580;2023-08-12T13:00:39;101512.78;;;26.59;56.28
82262;BME280;71861;52.364;6.580;2023-08-12T13:03:05;101513.63;;;26.81;52.81
82262;BME280;71861;52.364;6.580;2023-08-12T13:05:30;101505.19;;;26.89;55.40
82262;BME280;71861;52.364;6.580;2023-08-12T13:07:55;101508.44;;;27.18;56.04
82262;BME280;71861;52.364;6.580;2023-08-12T13:10:21;101502.69;;;27.52;51.90
82262;BME280;71861;52.364;6.580;2023-08-12T13:12:46;101511.09;;;27.39;49.20
82262;BME280;71861;52.364;6.580;2023-08-12T13:15:11;101507.09;;;27.15;52.75
82262;BME280;71861;52.364;6.580;2023-08-12T13:17:37;101524.16;;;27.14;53.58
82262;BME280;71861;52.364;6.580;2023-08-12T13:20:03;101525.94;;;27.09;53.93
82262;BME280;71861;52.364;6.580;2023-08-12T13:22:28;101535.38;;;27.16;53.04
82262;BME280;71861;52.364;6.580;2023-08-12T13:24:54;101528.19;;;27.17;49.36
82262;BME280;71861;52.364;6.580;2023-08-12T13:27:19;101534.88;;;26.98;50.54
82262;BME280;71861;52.364;6.580;2023-08-12T13:29:44;101534.47;;;26.84;52.84
82262;BME280;71861;52.364;6.580;2023-08-12T13:32:10;101528.53;;;26.77;53.31
82262;BME280;71861;52.364;6.580;2023-08-12T13:34:36;101532.03;;;26.83;54.47
82262;BME280;71861;52.364;6.580;2023-08-12T13:37:01;101532.88;;;26.83;53.75
82262;BME280;71861;52.364;6.580;2023-08-12T13:39:26;101532.00;;;26.61;52.20
82262;BME280;71861;52.364;6.580;2023-08-12T13:41:52;101536.06;;;26.47;52.95
82262;BME280;71861;52.364;6.580;2023-08-12T13:44:19;101543.13;;;26.37;53.56
82262;BME280;71861;52.364;6.580;2023-08-12T13:46:45;101538.44;;;26.27;51.01
82262;BME280;71861;52.364;6.580;2023-08-12T13:49:10;101542.09;;;26.21;51.89
82262;BME280;71861;52.364;6.580;2023-08-12T13:51:37;101537.66;;;26.10;53.24
82262;BME280;71861;52.364;6.580;2023-08-12T13:54:02;101539.09;;;26.17;53.33
82262;BME280;71861;52.364;6.580;2023-08-12T13:56:28;101539.38;;;26.38;54.61
82262;BME280;71861;52.364;6.580;2023-08-12T13:58:53;101537.94;;;26.63;54.17
82262;BME280;71861;52.364;6.580;2023-08-12T14:01:18;101539.38;;;26.71;52.43
82262;BME280;71861;52.364;6.580;2023-08-12T14:03:44;101539.22;;;26.82;51.46
82262;BME280;71861;52.364;6.580;2023-08-12T14:06:09;101544.03;;;26.80;52.65
82262;BME280;71861;52.364;6.580;2023-08-12T14:08:35;101542.72;;;26.83;52.48
82262;BME280;71861;52.364;6.580;2023-08-12T14:11:00;101535.47;;;26.78;51.78
82262;BME280;71861;52.364;6.580;2023-08-12T14:13:25;101531.53;;;26.64;48.15
82262;BME280;71861;52.364;6.580;2023-08-12T14:15:50;101533.09;;;26.44;50.03
82262;BME280;71861;52.364;6.580;2023-08-12T14:18:17;101541.84;;;26.23;50.46
82262;BME280;71861;52.364;6.580;2023-08-12T14:20:43;101551.22;;;26.08;52.96
82262;BME280;71861;52.364;6.580;2023-08-12T14:23:08;101537.00;;;26.03;51.39
82262;BME280;71861;52.364;6.580;2023-08-12T14:25:33;101536.78;;;26.04;52.48
82262;BME280;71861;52.364;6.580;2023-08-12T14:27:59;101539.44;;;26.04;51.44
82262;BME280;71861;52.364;6.580;2023-08-12T14:30:25;101538.13;;;26.07;52.34
82262;BME280;71861;52.364;6.580;2023-08-12T14:32:53;101531.22;;;26.06;51.64
82262;BME280;71861;52.364;6.580;2023-08-12T14:35:18;101533.91;;;25.78;50.56
82262;BME280;71861;52.364;6.580;2023-08-12T14:37:44;101540.22;;;25.44;51.93
82262;BME280;71861;52.364;6.580;2023-08-12T14:40:09;101541.41;;;25.25;53.78
82262;BME280;71861;52.364;6.580;2023-08-12T14:42:35;101544.53;;;25.22;52.89
82262;BME280;71861;52.364;6.580;2023-08-12T14:45:01;101544.63;;;24.99;53.23
82262;BME280;71861;52.364;6.580;2023-08-12T14:47:26;101541.22;;;24.75;52.65
82262;BME280;71861;52.364;6.580;2023-08-12T14:49:52;101541.09;;;24.47;51.78
82262;BME280;71861;52.364;6.580;2023-08-12T14:52:19;101538.22;;;24.25;54.44
82262;BME280;71861;52.364;6.580;2023-08-12T14:54:45;101542.94;;;24.12;54.70
82262;BME280;71861;52.364;6.580;2023-08-12T14:57:11;101550.94;;;23.94;54.04
82262;BME280;71861;52.364;6.580;2023-08-12T14:59:36;101542.97;;;23.82;54.21
82262;BME280;71861;52.364;6.580;2023-08-12T15:02:02;101555.75;;;23.74;55.42
82262;BME280;71861;52.364;6.580;2023-08-12T15:04:27;101549.06;;;23.71;55.56
82262;BME280;71861;52.364;6.580;2023-08-12T15:06:53;101546.84;;;23.68;54.27
82262;BME280;71861;52.364;6.580;2023-08-12T15:09:18;101542.22;;;23.64;54.36
82262;BME280;71861;52.364;6.580;2023-08-12T15:11:44;101545.78;;;23.58;54.23
82262;BME280;71861;52.364;6.580;2023-08-12T15:14:09;101550.72;;;23.54;54.77
82262;BME280;71861;52.364;6.580;2023-08-12T15:16:34;101566.06;;;23.52;55.04
82262;BME280;71861;52.364;6.580;2023-08-12T15:19:00;101562.25;;;23.48;53.51
82262;BME280;71861;52.364;6.580;2023-08-12T15:21:25;101548.69;;;23.56;53.05
82262;BME280;71861;52.364;6.580;2023-08-12T15:23:51;101554.44;;;23.53;52.86
82262;BME280;71861;52.364;6.580;2023-08-12T15:26:18;101543.44;;;23.50;51.22
82262;BME280;71861;52.364;6.580;2023-08-12T15:28:44;101550.03;;;23.47;52.25
82262;BME280;71861;52.364;6.580;2023-08-12T15:31:11;101551.78;;;23.53;53.21
82262;BME280;71861;52.364;6.580;2023-08-12T15:33:37;101551.31;;;23.56;50.93
82262;BME280;71861;52.364;6.580;2023-08-12T15:36:03;101551.31;;;23.56;52.47
82262;BME280;71861;52.364;6.580;2023-08-12T15:38:28;101547.69;;;23.69;52.39
82262;BME280;71861;52.364;6.580;2023-08-12T15:40:53;101539.56;;;23.64;52.10
82262;BME280;71861;52.364;6.580;2023-08-12T15:43:19;101540.13;;;23.54;53.10
82262;BME280;71861;52.364;6.580;2023-08-12T15:45:44;101547.25;;;23.54;52.56
82262;BME280;71861;52.364;6.580;2023-08-12T15:48:10;101553.31;;;23.61;53.32